createdAt,value
2022-10-06T03:50:58.362Z,99.90
2022-10-06T03:56:59.935Z,99.90
2022-10-06T04:00:06.982Z,99.90
2022-10-06T04:05:42.543Z,99.90
2022-10-06T04:08:27.248Z,99.90
2022-10-06T04:11:21.515Z,99.90
2022-10-06T04:13:52.366Z,99.90
2022-10-06T04:16:24.287Z,99.90
2022-10-06T04:19:05.023Z,99.90
2022-10-06T04:21:39.457Z,99.90
2022-10-06T04:24:10.696Z,99.90
2022-10-06T04:26:49.021Z,99.90
2022-10-06T04:29:16.557Z,99.90
2022-10-06T04:31:44.157Z,99.90
2022-10-06T04:34:18.318Z,99.90
2022-10-06T04:36:48.255Z,99.90
2022-10-06T04:39:23.839Z,99.90
2022-10-06T04:41:50.709Z,99.90
2022-10-06T04:44:33.673Z,99.90
2022-10-06T04:47:10.115Z,99.90
2022-10-06T04:49:37.232Z,99.90
2022-10-06T04:52:10.217Z,99.90
2022-10-06T04:54:37.035Z,99.90
2022-10-06T04:57:04.171Z,99.90
2022-10-06T04:59:52.960Z,99.90
2022-10-06T05:02:26.081Z,99.90
2022-10-06T05:05:01.776Z,99.90
2022-10-06T05:07:34.355Z,99.90
2022-10-06T05:10:04.212Z,99.90
2022-10-06T05:12:31.278Z,99.90
2022-10-06T05:15:03.123Z,99.90
2022-10-06T05:17:35.779Z,99.90
2022-10-06T05:20:13.965Z,99.90
2022-10-06T05:23:04.110Z,99.90
2022-10-06T05:25:46.255Z,99.90
2022-10-06T05:28:13.279Z,99.90
2022-10-06T05:30:41.000Z,99.90
2022-10-06T05:33:11.449Z,99.90
2022-10-06T05:35:50.693Z,99.90
2022-10-06T05:38:17.689Z,99.90
2022-10-06T05:40:44.791Z,99.90
2022-10-06T05:43:11.919Z,99.90
2022-10-06T05:45:59.884Z,99.90
2022-10-06T05:48:56.038Z,99.90
2022-10-06T05:51:59.591Z,99.90
2022-10-06T06:08:19.015Z,99.90
2022-10-06T06:28:16.036Z,99.90
2022-10-06T06:31:03.969Z,99.90
2022-10-06T06:33:48.774Z,99.40
2022-10-06T06:36:32.135Z,98.20
2022-10-06T06:39:08.571Z,97.50
2022-10-06T06:41:49.270Z,96.50
2022-10-06T06:44:16.502Z,95.30
2022-10-06T06:46:59.589Z,94.70
2022-10-06T06:49:27.145Z,93.60
2022-10-06T06:51:54.579Z,92.70
2022-10-06T06:54:21.803Z,90.70
2022-10-06T06:56:49.110Z,90.80
2022-10-06T06:59:19.111Z,88.60
2022-10-06T07:01:49.358Z,87.20
2022-10-06T07:04:49.765Z,83.90
2022-10-06T07:07:21.244Z,80.30
2022-10-06T07:09:57.584Z,77.00
2022-10-06T07:12:27.915Z,76.70
2022-10-06T07:15:15.559Z,75.60
2022-10-06T07:18:04.934Z,73.10
2022-10-06T07:20:53.935Z,71.30
2022-10-06T07:23:43.941Z,72.10
2022-10-06T07:26:40.138Z,68.70
2022-10-06T07:29:07.693Z,67.10
2022-10-06T07:31:36.388Z,67.90
2022-10-06T07:34:12.651Z,66.60
2022-10-06T07:36:46.582Z,64.10
2022-10-06T07:39:13.469Z,61.20
2022-10-06T07:41:40.394Z,61.80
2022-10-06T07:44:08.271Z,59.60
2022-10-06T07:46:35.675Z,59.60
2022-10-06T07:49:03.212Z,57.80
2022-10-06T07:51:30.217Z,57.70
2022-10-06T07:53:57.714Z,56.80
2022-10-06T07:56:24.581Z,57.80
2022-10-06T07:58:51.785Z,58.50
2022-10-06T08:01:20.798Z,57.70
2022-10-06T08:03:51.972Z,57.90
2022-10-06T08:06:19.911Z,58.40
2022-10-06T08:08:52.489Z,57.80
2022-10-06T08:11:21.109Z,58.00
2022-10-06T08:13:48.454Z,58.00
2022-10-06T08:16:23.067Z,57.50
2022-10-06T08:18:54.388Z,57.00
2022-10-06T08:21:22.591Z,56.60
2022-10-06T08:23:51.018Z,56.50
2022-10-06T08:26:19.778Z,56.20
2022-10-06T08:28:51.947Z,56.70
2022-10-06T08:31:21.356Z,56.80
2022-10-06T08:33:49.166Z,56.30
2022-10-06T08:36:19.201Z,55.70
2022-10-06T08:38:49.988Z,55.20
2022-10-06T08:41:38.642Z,54.20
2022-10-06T08:44:19.264Z,54.90
2022-10-06T08:47:02.496Z,54.80
2022-10-06T08:49:39.176Z,54.70
2022-10-06T08:52:28.189Z,54.10
2022-10-06T08:55:10.432Z,53.90
2022-10-06T08:58:05.536Z,53.40
2022-10-06T09:00:33.307Z,53.40
2022-10-06T09:03:01.679Z,52.90
2022-10-06T09:05:29.926Z,52.90
2022-10-06T09:08:21.356Z,53.30
2022-10-06T09:11:09.930Z,53.10
2022-10-06T09:13:47.633Z,52.30
2022-10-06T09:16:19.286Z,52.20
2022-10-06T09:19:08.093Z,51.70
2022-10-06T09:21:41.198Z,51.30
2022-10-06T09:24:16.875Z,50.40
2022-10-06T09:26:46.531Z,48.50
2022-10-06T09:29:14.706Z,48.80
2022-10-06T09:31:51.182Z,49.80
2022-10-06T09:34:36.533Z,50.10
2022-10-06T09:37:12.925Z,49.00
2022-10-06T09:39:51.104Z,48.70
2022-10-06T09:42:35.723Z,49.30
2022-10-06T09:45:08.144Z,50.30
2022-10-06T09:47:47.459Z,53.50
2022-10-06T09:50:17.637Z,54.60
2022-10-06T09:53:03.667Z,53.70
2022-10-06T09:55:33.907Z,52.40
2022-10-06T09:58:01.490Z,51.80
2022-10-06T10:00:33.339Z,51.70
2022-10-06T10:03:03.789Z,51.00
2022-10-06T10:05:33.575Z,51.00
2022-10-06T10:08:24.555Z,50.00
2022-10-06T10:11:30.536Z,49.00
2022-10-06T10:13:58.878Z,50.00
2022-10-06T10:16:34.764Z,49.70
2022-10-06T10:19:06.002Z,49.30
2022-10-06T10:21:34.947Z,48.80
2022-10-06T10:24:06.718Z,49.80
2022-10-06T10:26:36.810Z,49.40
2022-10-06T10:29:12.345Z,48.60
2022-10-06T10:32:21.993Z,48.90
2022-10-06T10:35:19.564Z,48.60
2022-10-06T10:37:52.115Z,47.70
2022-10-06T10:40:44.131Z,47.50
2022-10-06T10:43:22.753Z,48.20
2022-10-06T10:46:13.993Z,48.80
2022-10-06T10:49:13.592Z,48.90
2022-10-06T10:51:53.073Z,48.50
2022-10-06T10:54:34.104Z,49.00
2022-10-06T10:57:01.371Z,49.10
2022-10-06T10:59:39.407Z,50.00
2022-10-06T11:02:14.962Z,52.40
2022-10-06T11:04:47.215Z,56.00
2022-10-06T11:07:21.261Z,58.70
2022-10-06T11:10:14.279Z,61.70
2022-10-06T11:13:12.857Z,63.90
2022-10-06T11:16:31.864Z,66.60
2022-10-06T11:19:15.171Z,68.30
2022-10-06T11:21:58.327Z,70.00
2022-10-06T11:25:17.055Z,70.70
2022-10-06T11:28:39.616Z,70.80
2022-10-06T11:31:30.788Z,72.50
2022-10-06T11:34:02.020Z,74.10
2022-10-06T11:36:58.118Z,75.10
2022-10-06T11:39:49.598Z,75.90
2022-10-06T11:42:35.924Z,74.30
2022-10-06T11:45:17.384Z,72.50
2022-10-06T11:47:56.592Z,70.40
2022-10-06T11:50:44.110Z,65.80
2022-10-06T11:53:34.422Z,62.00
2022-10-06T11:56:19.626Z,59.20
2022-10-06T11:58:52.614Z,57.20
2022-10-06T12:01:32.434Z,58.30
2022-10-06T12:04:08.332Z,59.20
2022-10-06T12:07:04.876Z,60.00
2022-10-06T12:09:46.100Z,61.30
2022-10-06T12:12:19.039Z,62.70
2022-10-06T12:17:47.245Z,66.00
2022-10-06T12:20:44.066Z,68.20
2022-10-06T12:23:23.350Z,70.20
2022-10-06T12:26:36.105Z,73.20
2022-10-06T12:29:47.027Z,75.10
2022-10-06T12:33:01.378Z,76.70
2022-10-06T12:35:45.271Z,78.90
2022-10-06T12:38:48.941Z,80.00
2022-10-06T12:41:54.358Z,77.30
2022-10-06T12:44:31.903Z,74.70
2022-10-06T12:47:04.155Z,71.20
2022-10-06T12:49:37.082Z,68.90
2022-10-06T12:52:21.255Z,67.70
2022-10-06T12:55:06.635Z,69.00
2022-10-06T12:57:48.927Z,69.30
2022-10-06T13:00:42.427Z,65.80
2022-10-06T13:03:24.446Z,62.90
2022-10-06T13:05:55.114Z,60.40
2022-10-06T13:08:24.422Z,58.60
2022-10-06T13:10:51.520Z,58.40
2022-10-06T13:13:24.471Z,60.70
2022-10-06T13:15:55.847Z,61.30
2022-10-06T13:18:23.402Z,60.60
2022-10-06T13:20:51.428Z,60.30
2022-10-06T13:23:36.205Z,59.90
2022-10-06T13:26:22.739Z,59.50
2022-10-06T13:28:52.429Z,61.10
2022-10-06T13:31:31.417Z,63.60
2022-10-06T13:34:07.756Z,66.60
2022-10-06T13:36:38.714Z,68.60
2022-10-06T13:39:11.568Z,67.60
2022-10-06T13:41:52.166Z,65.90
2022-10-06T13:44:19.044Z,63.30
2022-10-06T13:46:50.762Z,62.10
2022-10-06T13:49:20.632Z,62.60
2022-10-06T13:51:55.469Z,64.90
2022-10-06T13:54:30.994Z,64.40
2022-10-06T13:56:58.667Z,62.00
2022-10-06T13:59:39.796Z,61.60
2022-10-06T14:02:19.085Z,60.50
2022-10-06T14:05:21.184Z,59.40
2022-10-06T14:07:49.386Z,59.10
2022-10-06T14:10:22.347Z,58.60
2022-10-06T14:12:49.620Z,57.70
2022-10-06T14:15:23.175Z,58.30
2022-10-06T14:17:58.308Z,58.00
2022-10-06T14:20:42.328Z,58.20
2022-10-06T14:23:43.222Z,58.40
2022-10-06T14:26:13.195Z,58.50
2022-10-06T14:28:44.499Z,59.40
2022-10-06T14:31:47.229Z,62.10
2022-10-06T14:34:23.958Z,64.10
2022-10-06T14:36:52.031Z,64.60
2022-10-06T14:39:19.565Z,63.40
2022-10-06T14:41:46.574Z,63.10
2022-10-06T14:44:22.597Z,63.40
2022-10-06T14:46:50.895Z,62.50
2022-10-06T14:49:21.532Z,61.60
2022-10-06T14:51:48.382Z,60.80
2022-10-06T14:54:15.597Z,60.20
2022-10-06T14:56:43.003Z,60.30
2022-10-06T14:59:14.601Z,60.80
2022-10-06T15:01:44.887Z,60.80
2022-10-06T15:04:15.917Z,61.30
2022-10-06T15:07:01.550Z,61.20
2022-10-06T15:09:30.784Z,61.70
2022-10-06T15:11:59.146Z,62.00
2022-10-06T15:14:28.399Z,61.60
2022-10-06T15:16:59.039Z,62.80
2022-10-06T15:19:47.433Z,62.20
2022-10-06T15:22:14.739Z,63.90
2022-10-06T15:24:52.870Z,64.50
2022-10-06T15:27:42.313Z,64.70
2022-10-06T15:30:19.172Z,64.20
2022-10-06T15:32:53.787Z,64.20
2022-10-06T15:35:43.016Z,64.60
2022-10-06T15:38:19.361Z,63.90
2022-10-06T15:40:46.877Z,64.60
2022-10-06T15:43:36.340Z,65.10
2022-10-06T15:46:38.711Z,65.90
2022-10-06T15:49:55.148Z,65.70
2022-10-06T15:52:37.245Z,67.60
2022-10-06T17:32:29.882Z,99.90
2022-10-06T17:50:52.584Z,99.90
2022-10-06T17:56:41.055Z,99.90
2022-10-06T17:59:17.845Z,99.90
2022-10-06T18:01:45.495Z,99.90
2022-10-06T18:04:38.755Z,99.90
2022-10-06T18:07:17.235Z,99.90
2022-10-06T18:27:32.738Z,99.90
2022-10-06T18:55:33.178Z,99.90
2022-10-06T18:58:00.500Z,99.90
2022-10-06T19:00:27.889Z,99.90
2022-10-06T19:02:57.038Z,99.90
2022-10-06T19:05:24.717Z,99.90
2022-10-06T19:11:11.199Z,99.90
2022-10-06T19:13:47.662Z,99.90
2022-10-06T19:27:23.452Z,99.90
2022-10-06T19:30:34.873Z,99.90
2022-10-06T19:44:54.083Z,99.90
2022-10-06T19:51:45.218Z,99.90
2022-10-06T20:28:08.978Z,99.90
2022-10-06T20:42:30.727Z,99.90
2022-10-06T21:19:09.155Z,99.90
2022-10-06T21:25:32.790Z,99.90
2022-10-06T21:28:28.681Z,99.90
2022-10-06T21:31:05.079Z,99.90
2022-10-06T21:33:41.638Z,99.90
2022-10-06T21:36:34.940Z,99.90
2022-10-06T21:39:09.057Z,99.90
2022-10-06T21:41:41.844Z,99.90
2022-10-06T21:44:17.368Z,99.90
2022-10-06T21:46:58.010Z,99.90
2022-10-06T21:49:30.032Z,99.90
2022-10-06T21:52:03.666Z,99.90
2022-10-06T21:54:33.187Z,99.90
2022-10-06T21:57:19.426Z,99.90
2022-10-06T22:00:33.749Z,99.90
2022-10-06T22:03:16.802Z,99.90
2022-10-06T22:05:58.294Z,99.90
2022-10-06T22:08:25.804Z,99.90
2022-10-06T22:18:27.260Z,99.90
2022-10-06T22:20:54.684Z,99.90
2022-10-06T22:23:29.619Z,99.90
2022-10-06T22:38:18.009Z,99.90
2022-10-06T23:10:07.895Z,99.90
2022-10-06T23:24:07.759Z,99.90
2022-10-06T23:34:37.849Z,99.90
2022-10-06T23:37:09.709Z,99.90
2022-10-06T23:41:53.883Z,99.90
2022-10-06T23:42:39.549Z,99.90
2022-10-06T23:45:10.363Z,99.90
2022-10-06T23:47:38.162Z,99.90
2022-10-06T23:50:29.148Z,99.90
2022-10-06T23:53:34.819Z,99.90
